sensor_id;sensor_type;location;lat;lon;timestamp;temperature;humidity
15625;DHT22;7912;51.376;6.126;2023-05-10T00:01:02;16.90;99.90
15625;DHT22;7912;51.376;6.126;2023-05-10T00:03:30;16.80;99.90
15625;DHT22;7912;51.376;6.126;2023-05-10T00:05:57;16.80;99.90
15625;DHT22;7912;51.376;6.126;2023-05-10T00:08:25;16.80;99.90
15625;DHT22;7912;51.376;6.126;2023-05-10T00:10:53;16.80;99.90
15625;DHT22;7912;51.376;6.126;2023-05-10T00:13:20;16.80;99.90
15625;DHT22;7912;51.376;6.126;2023-05-10T00:15:48;16.80;99.90
15625;DHT22;7912;51.376;6.126;2023-05-10T00:18:15;16.80;99.90
15625;DHT22;7912;51.376;6.126;2023-05-10T00:20:42;16.80;99.90
15625;DHT22;7912;51.376;6.126;2023-05-10T00:23:10;16.80;99.90
15625;DHT22;7912;51.376;6.126;2023-05-10T00:25:37;16.80;99.90
15625;DHT22;7912;51.376;6.126;2023-05-10T00:28:04;16.80;99.90
15625;DHT22;7912;51.376;6.126;2023-05-10T00:30:32;16.80;99.90
15625;DHT22;7912;51.376;6.126;2023-05-10T00:32:59;16.80;99.90
15625;DHT22;7912;51.376;6.126;2023-05-10T00:35:27;16.80;99.90
15625;DHT22;7912;51.376;6.126;2023-05-10T00:37:54;16.80;99.90
15625;DHT22;7912;51.376;6.126;2023-05-10T00:40:25;16.80;99.90
15625;DHT22;7912;51.376;6.126;2023-05-10T00:42:52;16.80;99.90
15625;DHT22;7912;51.376;6.126;2023-05-10T00:45:20;16.70;99.90
15625;DHT22;7912;51.376;6.126;2023-05-10T00:47:47;16.70;99.90
15625;DHT22;7912;51.376;6.126;2023-05-10T00:50:15;16.70;99.90
15625;DHT22;7912;51.376;6.126;2023-05-10T00:52:43;16.70;99.90
15625;DHT22;7912;51.376;6.126;2023-05-10T00:55:11;16.70;99.90
15625;DHT22;7912;51.376;6.126;2023-05-10T00:58:00;16.70;99.90
15625;DHT22;7912;51.376;6.126;2023-05-10T01:00:28;16.70;99.90
15625;DHT22;7912;51.376;6.126;2023-05-10T01:02:56;16.70;99.90
15625;DHT22;7912;51.376;6.126;2023-05-10T01:05:24;16.70;99.90
15625;DHT22;7912;51.376;6.126;2023-05-10T01:07:53;16.70;99.90
15625;DHT22;7912;51.376;6.126;2023-05-10T01:10:21;16.70;99.90
15625;DHT22;7912;51.376;6.126;2023-05-10T01:12:49;16.70;99.90
15625;DHT22;7912;51.376;6.126;2023-05-10T01:15:17;16.60;99.90
15625;DHT22;7912;51.376;6.126;2023-05-10T01:17:46;16.60;99.90
15625;DHT22;7912;51.376;6.126;2023-05-10T01:20:15;16.60;99.90
15625;DHT22;7912;51.376;6.126;2023-05-10T01:26:19;16.60;99.90
15625;DHT22;7912;51.376;6.126;2023-05-10T01:35:15;16.60;99.90
15625;DHT22;7912;51.376;6.126;2023-05-10T01:38:04;16.60;99.90
15625;DHT22;7912;51.376;6.126;2023-05-10T01:43:23;16.50;99.90
15625;DHT22;7912;51.376;6.126;2023-05-10T01:46:05;16.50;99.90
15625;DHT22;7912;51.376;6.126;2023-05-10T01:48:48;16.50;99.90
15625;DHT22;7912;51.376;6.126;2023-05-10T01:51:24;16.50;99.90
15625;DHT22;7912;51.376;6.126;2023-05-10T01:53:59;16.50;99.90
15625;DHT22;7912;51.376;6.126;2023-05-10T01:56:31;16.50;99.90
15625;DHT22;7912;51.376;6.126;2023-05-10T01:59:00;16.50;99.90
15625;DHT22;7912;51.376;6.126;2023-05-10T02:01:36;16.50;99.90
15625;DHT22;7912;51.376;6.126;2023-05-10T02:04:07;16.50;99.90
15625;DHT22;7912;51.376;6.126;2023-05-10T02:06:38;16.60;99.90
15625;DHT22;7912;51.376;6.126;2023-05-10T02:09:07;16.60;99.90
15625;DHT22;7912;51.376;6.126;2023-05-10T02:11:43;16.60;99.90
15625;DHT22;7912;51.376;6.126;2023-05-10T02:14:11;16.60;99.90
15625;DHT22;7912;51.376;6.126;2023-05-10T02:16:40;16.60;99.90
15625;DHT22;7912;51.376;6.126;2023-05-10T02:19:10;16.60;99.90
15625;DHT22;7912;51.376;6.126;2023-05-10T02:21:41;16.60;99.90
15625;DHT22;7912;51.376;6.126;2023-05-10T02:24:11;16.60;99.90
15625;DHT22;7912;51.376;6.126;2023-05-10T02:26:41;16.60;99.90
15625;DHT22;7912;51.376;6.126;2023-05-10T02:29:10;16.60;99.90
15625;DHT22;7912;51.376;6.126;2023-05-10T02:31:39;16.60;99.90
15625;DHT22;7912;51.376;6.126;2023-05-10T02:34:10;16.60;99.90
15625;DHT22;7912;51.376;6.126;2023-05-10T02:36:39;16.60;99.90
15625;DHT22;7912;51.376;6.126;2023-05-10T02:39:08;16.60;99.90
15625;DHT22;7912;51.376;6.126;2023-05-10T02:41:41;16.60;99.90
15625;DHT22;7912;51.376;6.126;2023-05-10T02:44:10;16.60;99.90
15625;DHT22;7912;51.376;6.126;2023-05-10T02:46:40;16.60;99.90
15625;DHT22;7912;51.376;6.126;2023-05-10T02:49:08;16.70;99.90
15625;DHT22;7912;51.376;6.126;2023-05-10T02:51:37;16.70;99.90
15625;DHT22;7912;51.376;6.126;2023-05-10T02:54:18;16.70;99.90
15625;DHT22;7912;51.376;6.126;2023-05-10T02:56:59;16.70;99.90
15625;DHT22;7912;51.376;6.126;2023-05-10T02:59:31;16.70;99.90
15625;DHT22;7912;51.376;6.126;2023-05-10T03:01:59;16.70;99.90
15625;DHT22;7912;51.376;6.126;2023-05-10T03:04:28;16.70;99.90
15625;DHT22;7912;51.376;6.126;2023-05-10T03:06:56;16.80;99.90
15625;DHT22;7912;51.376;6.126;2023-05-10T03:09:24;16.80;99.90
15625;DHT22;7912;51.376;6.126;2023-05-10T03:15:06;16.80;99.90
15625;DHT22;7912;51.376;6.126;2023-05-10T03:20:24;16.90;99.90
15625;DHT22;7912;51.376;6.126;2023-05-10T03:25:50;16.90;99.90
15625;DHT22;7912;51.376;6.126;2023-05-10T03:28:20;16.90;99.90
15625;DHT22;7912;51.376;6.126;2023-05-10T03:30:49;16.90;99.90
15625;DHT22;7912;51.376;6.126;2023-05-10T03:33:19;17.00;99.90
15625;DHT22;7912;51.376;6.126;2023-05-10T03:35:47;16.90;99.90
15625;DHT22;7912;51.376;6.126;2023-05-10T03:38:15;16.90;99.90
15625;DHT22;7912;51.376;6.126;2023-05-10T03:40:45;17.00;99.90
15625;DHT22;7912;51.376;6.126;2023-05-10T03:43:12;17.00;99.90
15625;DHT22;7912;51.376;6.126;2023-05-10T03:45:39;17.00;99.90
15625;DHT22;7912;51.376;6.126;2023-05-10T03:48:07;17.00;99.90
15625;DHT22;7912;51.376;6.126;2023-05-10T03:50:35;17.00;99.90
15625;DHT22;7912;51.376;6.126;2023-05-10T03:53:02;17.00;99.90
15625;DHT22;7912;51.376;6.126;2023-05-10T03:55:30;17.00;99.90
15625;DHT22;7912;51.376;6.126;2023-05-10T03:58:01;17.00;99.90
15625;DHT22;7912;51.376;6.126;2023-05-10T04:00:29;17.00;99.90
15625;DHT22;7912;51.376;6.126;2023-05-10T04:02:57;17.10;99.90
15625;DHT22;7912;51.376;6.126;2023-05-10T04:05:24;17.00;99.90
15625;DHT22;7912;51.376;6.126;2023-05-10T04:07:52;17.00;99.90
15625;DHT22;7912;51.376;6.126;2023-05-10T04:10:22;17.00;99.90
15625;DHT22;7912;51.376;6.126;2023-05-10T04:12:50;17.00;99.90
15625;DHT22;7912;51.376;6.126;2023-05-10T04:15:20;17.00;99.90
15625;DHT22;7912;51.376;6.126;2023-05-10T04:17:50;17.00;99.90
15625;DHT22;7912;51.376;6.126;2023-05-10T04:20:18;17.00;99.90
15625;DHT22;7912;51.376;6.126;2023-05-10T04:22:50;17.00;99.90
15625;DHT22;7912;51.376;6.126;2023-05-10T04:25:18;17.00;99.90
15625;DHT22;7912;51.376;6.126;2023-05-10T04:27:46;17.00;99.90
15625;DHT22;7912;51.376;6.126;2023-05-10T04:30:13;17.00;99.90
15625;DHT22;7912;51.376;6.126;2023-05-10T04:32:41;17.00;99.90
15625;DHT22;7912;51.376;6.126;2023-05-10T04:35:09;16.90;99.90
15625;DHT22;7912;51.376;6.126;2023-05-10T04:37:37;16.90;99.90
15625;DHT22;7912;51.376;6.126;2023-05-10T04:40:08;16.90;99.90
15625;DHT22;7912;51.376;6.126;2023-05-10T04:42:36;16.90;99.90
15625;DHT22;7912;51.376;6.126;2023-05-10T04:45:04;16.90;99.90
15625;DHT22;7912;51.376;6.126;2023-05-10T04:47:38;16.90;99.90
15625;DHT22;7912;51.376;6.126;2023-05-10T04:50:06;16.90;99.90
15625;DHT22;7912;51.376;6.126;2023-05-10T04:52:36;16.90;99.90
15625;DHT22;7912;51.376;6.126;2023-05-10T04:55:03;16.90;99.90
15625;DHT22;7912;51.376;6.126;2023-05-10T04:57:35;16.90;99.90
15625;DHT22;7912;51.376;6.126;2023-05-10T05:00:05;16.90;99.90
15625;DHT22;7912;51.376;6.126;2023-05-10T05:02:41;16.90;99.90
15625;DHT22;7912;51.376;6.126;2023-05-10T05:05:12;16.90;99.90
15625;DHT22;7912;51.376;6.126;2023-05-10T05:07:42;16.90;99.90
15625;DHT22;7912;51.376;6.126;2023-05-10T05:10:10;16.90;99.90
15625;DHT22;7912;51.376;6.126;2023-05-10T05:12:37;16.90;99.90
15625;DHT22;7912;51.376;6.126;2023-05-10T05:15:05;17.00;99.90
15625;DHT22;7912;51.376;6.126;2023-05-10T05:17:35;17.00;99.90
15625;DHT22;7912;51.376;6.126;2023-05-10T05:20:06;17.00;99.90
15625;DHT22;7912;51.376;6.126;2023-05-10T05:22:35;17.00;99.90
15625;DHT22;7912;51.376;6.126;2023-05-10T05:25:04;17.00;99.90
15625;DHT22;7912;51.376;6.126;2023-05-10T05:27:39;17.00;99.90
15625;DHT22;7912;51.376;6.126;2023-05-10T05:30:10;17.00;99.90
15625;DHT22;7912;51.376;6.126;2023-05-10T05:32:45;17.00;99.90
15625;DHT22;7912;51.376;6.126;2023-05-10T05:35:14;17.00;99.90
15625;DHT22;7912;51.376;6.126;2023-05-10T05:37:42;17.00;99.90
15625;DHT22;7912;51.376;6.126;2023-05-10T05:40:13;17.00;99.90
15625;DHT22;7912;51.376;6.126;2023-05-10T05:42:41;17.00;99.90
15625;DHT22;7912;51.376;6.126;2023-05-10T05:45:09;17.00;99.90
15625;DHT22;7912;51.376;6.126;2023-05-10T05:47:44;17.00;99.90
15625;DHT22;7912;51.376;6.126;2023-05-10T05:50:16;17.00;99.90
15625;DHT22;7912;51.376;6.126;2023-05-10T05:52:46;17.00;99.90
15625;DHT22;7912;51.376;6.126;2023-05-10T05:55:13;17.00;99.90
15625;DHT22;7912;51.376;6.126;2023-05-10T05:57:47;17.10;99.90
15625;DHT22;7912;51.376;6.126;2023-05-10T06:00:17;17.10;99.90
15625;DHT22;7912;51.376;6.126;2023-05-10T06:03:07;17.10;99.90
15625;DHT22;7912;51.376;6.126;2023-05-10T06:05:38;17.10;99.90
15625;DHT22;7912;51.376;6.126;2023-05-10T06:08:09;17.10;99.90
15625;DHT22;7912;51.376;6.126;2023-05-10T06:10:41;17.20;99.90
15625;DHT22;7912;51.376;6.126;2023-05-10T06:13:09;17.20;99.90
15625;DHT22;7912;51.376;6.126;2023-05-10T06:15:38;17.30;99.90
15625;DHT22;7912;51.376;6.126;2023-05-10T06:18:13;17.30;99.90
15625;DHT22;7912;51.376;6.126;2023-05-10T06:20:44;17.30;99.90
15625;DHT22;7912;51.376;6.126;2023-05-10T06:23:12;17.40;99.90
15625;DHT22;7912;51.376;6.126;2023-05-10T06:25:47;17.40;99.90
15625;DHT22;7912;51.376;6.126;2023-05-10T06:28:14;17.40;99.90
15625;DHT22;7912;51.376;6.126;2023-05-10T06:31:22;17.40;99.90
15625;DHT22;7912;51.376;6.126;2023-05-10T06:34:45;17.40;99.90
15625;DHT22;7912;51.376;6.126;2023-05-10T06:40:59;17.40;99.90
15625;DHT22;7912;51.376;6.126;2023-05-10T06:43:59;17.40;99.90
15625;DHT22;7912;51.376;6.126;2023-05-10T06:46:27;17.50;99.90
15625;DHT22;7912;51.376;6.126;2023-05-10T06:49:13;17.40;99.90
15625;DHT22;7912;51.376;6.126;2023-05-10T06:51:47;17.40;99.90
15625;DHT22;7912;51.376;6.126;2023-05-10T06:54:21;17.40;99.90
15625;DHT22;7912;51.376;6.126;2023-05-10T06:57:11;17.40;99.90
15625;DHT22;7912;51.376;6.126;2023-05-10T07:00:25;17.40;99.90
15625;DHT22;7912;51.376;6.126;2023-05-10T07:06:42;17.40;99.90
15625;DHT22;7912;51.376;6.126;2023-05-10T07:12:24;17.50;99.90
15625;DHT22;7912;51.376;6.126;2023-05-10T07:15:29;17.60;99.90
15625;DHT22;7912;51.376;6.126;2023-05-10T07:17:56;17.70;99.90
15625;DHT22;7912;51.376;6.126;2023-05-10T07:20:38;17.70;99.90
15625;DHT22;7912;51.376;6.126;2023-05-10T07:23:05;17.90;99.90
15625;DHT22;7912;51.376;6.126;2023-05-10T07:25:41;18.00;99.90
15625;DHT22;7912;51.376;6.126;2023-05-10T07:28:24;18.10;99.90
15625;DHT22;7912;51.376;6.126;2023-05-10T07:31:37;18.20;99.90
15625;DHT22;7912;51.376;6.126;2023-05-10T07:34:05;18.50;99.90
15625;DHT22;7912;51.376;6.126;2023-05-10T07:37:04;18.60;99.90
15625;DHT22;7912;51.376;6.126;2023-05-10T07:39:41;18.80;99.90
15625;DHT22;7912;51.376;6.126;2023-05-10T07:46:34;19.00;99.90
15625;DHT22;7912;51.376;6.126;2023-05-10T07:52:07;19.10;99.90
15625;DHT22;7912;51.376;6.126;2023-05-10T07:55:07;19.20;99.90
15625;DHT22;7912;51.376;6.126;2023-05-10T08:01:04;19.30;99.90
15625;DHT22;7912;51.376;6.126;2023-05-10T08:10:46;19.30;99.90
15625;DHT22;7912;51.376;6.126;2023-05-10T08:13:34;19.30;99.90
15625;DHT22;7912;51.376;6.126;2023-05-10T08:16:02;19.20;99.90
15625;DHT22;7912;51.376;6.126;2023-05-10T08:18:48;19.10;99.90
15625;DHT22;7912;51.376;6.126;2023-05-10T08:21:36;19.10;99.90
15625;DHT22;7912;51.376;6.126;2023-05-10T08:24:27;19.00;99.90
15625;DHT22;7912;51.376;6.126;2023-05-10T08:34:22;18.70;99.90
15625;DHT22;7912;51.376;6.126;2023-05-10T08:37:59;18.70;99.90
15625;DHT22;7912;51.376;6.126;2023-05-10T08:40:50;18.60;99.90
15625;DHT22;7912;51.376;6.126;2023-05-10T08:47:37;18.60;99.90
15625;DHT22;7912;51.376;6.126;2023-05-10T08:50:24;18.60;99.90
15625;DHT22;7912;51.376;6.126;2023-05-10T08:54:17;18.60;99.90
15625;DHT22;7912;51.376;6.126;2023-05-10T08:57:10;18.70;99.90
15625;DHT22;7912;51.376;6.126;2023-05-10T09:03:26;18.90;99.90
15625;DHT22;7912;51.376;6.126;2023-05-10T09:06:47;18.90;99.90
15625;DHT22;7912;51.376;6.126;2023-05-10T09:09:15;19.00;99.90
15625;DHT22;7912;51.376;6.126;2023-05-10T09:12:48;19.00;99.90
15625;DHT22;7912;51.376;6.126;2023-05-10T09:16:05;19.10;99.90
15625;DHT22;7912;51.376;6.126;2023-05-10T09:19:17;19.10;99.90
15625;DHT22;7912;51.376;6.126;2023-05-10T09:25:24;19.10;99.90
15625;DHT22;7912;51.376;6.126;2023-05-10T09:28:14;19.00;99.90
15625;DHT22;7912;51.376;6.126;2023-05-10T09:34:54;18.80;99.90
15625;DHT22;7912;51.376;6.126;2023-05-10T09:45:18;18.60;99.90
15625;DHT22;7912;51.376;6.126;2023-05-10T09:52:01;18.70;99.90
15625;DHT22;7912;51.376;6.126;2023-05-10T09:58:20;18.80;99.90
15625;DHT22;7912;51.376;6.126;2023-05-10T10:01:11;18.90;99.90
15625;DHT22;7912;51.376;6.126;2023-05-10T10:04:11;18.90;99.90
15625;DHT22;7912;51.376;6.126;2023-05-10T10:13:39;18.80;99.90
15625;DHT22;7912;51.376;6.126;2023-05-10T10:16:54;18.80;99.90
15625;DHT22;7912;51.376;6.126;2023-05-10T10:19:56;18.70;99.90
15625;DHT22;7912;51.376;6.126;2023-05-10T10:23:25;18.60;99.90
15625;DHT22;7912;51.376;6.126;2023-05-10T10:37:46;18.50;99.90
15625;DHT22;7912;51.376;6.126;2023-05-10T10:40:28;18.60;99.90
15625;DHT22;7912;51.376;6.126;2023-05-10T10:43:39;18.60;99.90
15625;DHT22;7912;51.376;6.126;2023-05-10T10:46:16;18.70;99.90
15625;DHT22;7912;51.376;6.126;2023-05-10T10:49:08;18.70;99.90
15625;DHT22;7912;51.376;6.126;2023-05-10T10:51:39;18.80;99.90
15625;DHT22;7912;51.376;6.126;2023-05-10T10:54:11;18.80;99.90
15625;DHT22;7912;51.376;6.126;2023-05-10T10:56:38;18.90;99.90
15625;DHT22;7912;51.376;6.126;2023-05-10T10:59:07;18.90;99.90
15625;DHT22;7912;51.376;6.126;2023-05-10T11:01:35;19.00;99.90
15625;DHT22;7912;51.376;6.126;2023-05-10T11:06:34;19.20;99.90
15625;DHT22;7912;51.376;6.126;2023-05-10T11:09:11;19.40;99.90
15625;DHT22;7912;51.376;6.126;2023-05-10T11:11:52;19.60;99.90
15625;DHT22;7912;51.376;6.126;2023-05-10T11:14:22;19.70;99.90
15625;DHT22;7912;51.376;6.126;2023-05-10T11:16:50;19.90;99.90
15625;DHT22;7912;51.376;6.126;2023-05-10T11:19:19;20.10;99.90
15625;DHT22;7912;51.376;6.126;2023-05-10T11:21:50;20.30;99.90
15625;DHT22;7912;51.376;6.126;2023-05-10T11:24:38;20.50;99.90
15625;DHT22;7912;51.376;6.126;2023-05-10T11:27:08;20.70;99.90
15625;DHT22;7912;51.376;6.126;2023-05-10T11:29:36;21.00;99.90
15625;DHT22;7912;51.376;6.126;2023-05-10T11:32:05;21.20;99.90
15625;DHT22;7912;51.376;6.126;2023-05-10T11:34:34;21.50;99.90
15625;DHT22;7912;51.376;6.126;2023-05-10T11:37:02;21.70;99.90
15625;DHT22;7912;51.376;6.126;2023-05-10T11:39:30;22.00;99.90
15625;DHT22;7912;51.376;6.126;2023-05-10T11:41:58;22.20;99.90
15625;DHT22;7912;51.376;6.126;2023-05-10T11:44:30;22.50;99.90
15625;DHT22;7912;51.376;6.126;2023-05-10T11:47:00;22.70;99.90
15625;DHT22;7912;51.376;6.126;2023-05-10T11:49:27;22.90;99.90
15625;DHT22;7912;51.376;6.126;2023-05-10T11:52:06;23.10;99.90
15625;DHT22;7912;51.376;6.126;2023-05-10T11:54:34;23.30;99.90
15625;DHT22;7912;51.376;6.126;2023-05-10T11:57:02;23.40;99.90
15625;DHT22;7912;51.376;6.126;2023-05-10T11:59:29;23.50;99.90
15625;DHT22;7912;51.376;6.126;2023-05-10T12:01:57;23.50;99.90
15625;DHT22;7912;51.376;6.126;2023-05-10T12:04:24;23.50;99.90
15625;DHT22;7912;51.376;6.126;2023-05-10T12:06:53;23.60;99.90
15625;DHT22;7912;51.376;6.126;2023-05-10T12:09:20;23.60;99.90
15625;DHT22;7912;51.376;6.126;2023-05-10T12:12:02;23.70;99.90
15625;DHT22;7912;51.376;6.126;2023-05-10T12:14:34;23.80;99.90
15625;DHT22;7912;51.376;6.126;2023-05-10T12:17:02;24.00;99.90
15625;DHT22;7912;51.376;6.126;2023-05-10T12:19:39;24.30;99.90
15625;DHT22;7912;51.376;6.126;2023-05-10T12:22:06;24.70;99.90
15625;DHT22;7912;51.376;6.126;2023-05-10T12:24:35;25.00;99.90
15625;DHT22;7912;51.376;6.126;2023-05-10T12:27:05;25.40;99.90
15625;DHT22;7912;51.376;6.126;2023-05-10T12:29:35;25.60;99.90
15625;DHT22;7912;51.376;6.126;2023-05-10T12:32:02;25.80;99.90
15625;DHT22;7912;51.376;6.126;2023-05-10T12:34:32;25.90;99.90
15625;DHT22;7912;51.376;6.126;2023-05-10T12:37:00;26.00;99.90
15625;DHT22;7912;51.376;6.126;2023-05-10T12:39:43;26.00;99.80
15625;DHT22;7912;51.376;6.126;2023-05-10T12:42:11;25.90;98.20
15625;DHT22;7912;51.376;6.126;2023-05-10T12:44:39;25.90;99.10
15625;DHT22;7912;51.376;6.126;2023-05-10T12:47:06;25.70;98.90
15625;DHT22;7912;51.376;6.126;2023-05-10T12:49:34;25.60;99.00
15625;DHT22;7912;51.376;6.126;2023-05-10T12:52:01;25.40;99.30
15625;DHT22;7912;51.376;6.126;2023-05-10T12:54:28;25.30;99.30
15625;DHT22;7912;51.376;6.126;2023-05-10T12:56:56;25.20;99.50
15625;DHT22;7912;51.376;6.126;2023-05-10T12:59:23;25.10;99.50
15625;DHT22;7912;51.376;6.126;2023-05-10T13:01:50;25.00;99.30
15625;DHT22;7912;51.376;6.126;2023-05-10T13:04:18;24.90;99.60
15625;DHT22;7912;51.376;6.126;2023-05-10T13:06:45;24.80;99.40
15625;DHT22;7912;51.376;6.126;2023-05-10T13:09:12;24.60;99.60
15625;DHT22;7912;51.376;6.126;2023-05-10T13:11:40;24.40;99.90
15625;DHT22;7912;51.376;6.126;2023-05-10T13:14:07;24.30;99.90
15625;DHT22;7912;51.376;6.126;2023-05-10T13:16:34;24.10;99.90
15625;DHT22;7912;51.376;6.126;2023-05-10T13:19:02;24.00;99.90
15625;DHT22;7912;51.376;6.126;2023-05-10T13:21:29;23.80;99.90
15625;DHT22;7912;51.376;6.126;2023-05-10T13:23:57;23.70;99.90
15625;DHT22;7912;51.376;6.126;2023-05-10T13:26:24;23.70;99.90
15625;DHT22;7912;51.376;6.126;2023-05-10T13:28:52;23.60;99.90
15625;DHT22;7912;51.376;6.126;2023-05-10T13:31:19;23.60;99.90
15625;DHT22;7912;51.376;6.126;2023-05-10T13:33:47;23.60;99.90
15625;DHT22;7912;51.376;6.126;2023-05-10T13:36:14;23.70;99.90
15625;DHT22;7912;51.376;6.126;2023-05-10T13:38:42;23.80;99.90
15625;DHT22;7912;51.376;6.126;2023-05-10T13:41:09;24.00;99.90
15625;DHT22;7912;51.376;6.126;2023-05-10T13:43:37;24.20;99.90
15625;DHT22;7912;51.376;6.126;2023-05-10T13:46:04;24.40;99.90
15625;DHT22;7912;51.376;6.126;2023-05-10T13:48:31;24.60;99.30
15625;DHT22;7912;51.376;6.126;2023-05-10T13:50:59;24.60;98.90
15625;DHT22;7912;51.376;6.126;2023-05-10T13:53:26;24.70;98.30
15625;DHT22;7912;51.376;6.126;2023-05-10T13:55:53;24.60;97.90
15625;DHT22;7912;51.376;6.126;2023-05-10T13:58:20;24.40;97.60
15625;DHT22;7912;51.376;6.126;2023-05-10T14:00:48;24.30;97.60
15625;DHT22;7912;51.376;6.126;2023-05-10T14:03:15;24.10;97.80
15625;DHT22;7912;51.376;6.126;2023-05-10T14:05:43;23.90;98.10
15625;DHT22;7912;51.376;6.126;2023-05-10T14:08:12;23.70;98.40
15625;DHT22;7912;51.376;6.126;2023-05-10T14:10:39;23.50;98.80
15625;DHT22;7912;51.376;6.126;2023-05-10T14:13:07;23.30;99.20
15625;DHT22;7912;51.376;6.126;2023-05-10T14:15:34;23.10;99.40
15625;DHT22;7912;51.376;6.126;2023-05-10T14:18:02;22.80;99.70
15625;DHT22;7912;51.376;6.126;2023-05-10T14:20:29;22.60;99.90
15625;DHT22;7912;51.376;6.126;2023-05-10T14:22:56;22.40;99.90
15625;DHT22;7912;51.376;6.126;2023-05-10T14:25:24;22.10;99.90
15625;DHT22;7912;51.376;6.126;2023-05-10T14:27:51;21.90;99.90
15625;DHT22;7912;51.376;6.126;2023-05-10T14:30:21;21.70;99.90
15625;DHT22;7912;51.376;6.126;2023-05-10T14:32:48;21.50;99.90
15625;DHT22;7912;51.376;6.126;2023-05-10T14:35:16;21.30;99.90
15625;DHT22;7912;51.376;6.126;2023-05-10T14:37:45;21.20;99.90
15625;DHT22;7912;51.376;6.126;2023-05-10T14:40:13;21.00;99.90
15625;DHT22;7912;51.376;6.126;2023-05-10T14:42:42;20.90;99.90
15625;DHT22;7912;51.376;6.126;2023-05-10T14:45:10;20.80;99.90
15625;DHT22;7912;51.376;6.126;2023-05-10T14:47:38;20.70;99.90
15625;DHT22;7912;51.376;6.126;2023-05-10T14:50:06;20.60;99.90
15625;DHT22;7912;51.376;6.126;2023-05-10T14:52:42;20.50;99.90
15625;DHT22;7912;51.376;6.126;2023-05-10T14:55:09;20.40;99.90
15625;DHT22;7912;51.376;6.126;2023-05-10T14:57:38;20.30;99.90
15625;DHT22;7912;51.376;6.126;2023-05-10T15:00:06;20.30;99.90
15625;DHT22;7912;51.376;6.126;2023-05-10T15:02:35;20.30;99.90
15625;DHT22;7912;51.376;6.126;2023-05-10T15:05:04;20.20;99.90
15625;DHT22;7912;51.376;6.126;2023-05-10T15:07:34;20.10;99.90
15625;DHT22;7912;51.376;6.126;2023-05-10T15:10:02;20.00;99.90
15625;DHT22;7912;51.376;6.126;2023-05-10T15:12:29;19.90;99.90
15625;DHT22;7912;51.376;6.126;2023-05-10T15:14:56;19.70;99.90
15625;DHT22;7912;51.376;6.126;2023-05-10T15:17:24;19.50;99.90
15625;DHT22;7912;51.376;6.126;2023-05-10T15:19:51;19.30;99.90
15625;DHT22;7912;51.376;6.126;2023-05-10T15:22:19;19.10;99.90
15625;DHT22;7912;51.376;6.126;2023-05-10T15:24:46;18.90;99.90
15625;DHT22;7912;51.376;6.126;2023-05-10T15:27:13;18.80;99.90
15625;DHT22;7912;51.376;6.126;2023-05-10T15:29:41;18.60;99.90
15625;DHT22;7912;51.376;6.126;2023-05-10T15:32:08;18.50;99.90
15625;DHT22;7912;51.376;6.126;2023-05-10T15:34:36;18.40;99.90
15625;DHT22;7912;51.376;6.126;2023-05-10T15:37:03;18.30;99.90
15625;DHT22;7912;51.376;6.126;2023-05-10T15:39:30;18.30;99.90
15625;DHT22;7912;51.376;6.126;2023-05-10T15:41:57;18.20;99.90
15625;DHT22;7912;51.376;6.126;2023-05-10T15:44:25;18.10;99.90
15625;DHT22;7912;51.376;6.126;2023-05-10T15:46:52;18.10;99.90
15625;DHT22;7912;51.376;6.126;2023-05-10T15:49:22;18.00;99.90
15625;DHT22;7912;51.376;6.126;2023-05-10T15:51:53;18.00;99.90
15625;DHT22;7912;51.376;6.126;2023-05-10T15:54:20;17.90;99.90
15625;DHT22;7912;51.376;6.126;2023-05-10T15:56:48;17.90;99.90
15625;DHT22;7912;51.376;6.126;2023-05-10T15:59:15;17.90;99.90
15625;DHT22;7912;51.376;6.126;2023-05-10T16:01:43;17.80;99.90
15625;DHT22;7912;51.376;6.126;2023-05-10T16:04:10;17.80;99.90
15625;DHT22;7912;51.376;6.126;2023-05-10T16:06:38;17.80;99.90
15625;DHT22;7912;51.376;6.126;2023-05-10T16:09:06;17.80;99.90
15625;DHT22;7912;51.376;6.126;2023-05-10T16:11:35;17.80;99.90
15625;DHT22;7912;51.376;6.126;2023-05-10T16:14:03;17.80;99.90
15625;DHT22;7912;51.376;6.126;2023-05-10T16:16:32;17.80;99.90
15625;DHT22;7912;51.376;6.126;2023-05-10T16:19:00;17.80;99.90
15625;DHT22;7912;51.376;6.126;2023-05-10T16:21:30;17.80;99.90
15625;DHT22;7912;51.376;6.126;2023-05-10T16:23:59;17.80;99.90
15625;DHT22;7912;51.376;6.126;2023-05-10T16:29:38;17.80;99.90
15625;DHT22;7912;51.376;6.126;2023-05-10T16:32:06;17.80;99.90
15625;DHT22;7912;51.376;6.126;2023-05-10T16:34:33;17.70;99.90
15625;DHT22;7912;51.376;6.126;2023-05-10T16:37:01;17.70;99.90
15625;DHT22;7912;51.376;6.126;2023-05-10T16:42:37;17.70;99.90
15625;DHT22;7912;51.376;6.126;2023-05-10T16:45:05;17.70;99.90
15625;DHT22;7912;51.376;6.126;2023-05-10T16:47:37;17.70;99.90
15625;DHT22;7912;51.376;6.126;2023-05-10T16:50:07;17.70;99.90
15625;DHT22;7912;51.376;6.126;2023-05-10T16:52:35;17.70;99.90
15625;DHT22;7912;51.376;6.126;2023-05-10T16:55:03;17.70;99.90
15625;DHT22;7912;51.376;6.126;2023-05-10T16:57:31;17.80;99.90
15625;DHT22;7912;51.376;6.126;2023-05-10T16:59:58;17.90;99.90
15625;DHT22;7912;51.376;6.126;2023-05-10T17:02:26;17.90;99.90
15625;DHT22;7912;51.376;6.126;2023-05-10T17:04:54;17.90;99.90
15625;DHT22;7912;51.376;6.126;2023-05-10T17:07:21;18.00;99.90
15625;DHT22;7912;51.376;6.126;2023-05-10T17:09:52;18.00;99.90
15625;DHT22;7912;51.376;6.126;2023-05-10T17:12:19;18.00;99.90
15625;DHT22;7912;51.376;6.126;2023-05-10T17:15:06;18.10;99.90
15625;DHT22;7912;51.376;6.126;2023-05-10T17:17:34;18.10;99.90
15625;DHT22;7912;51.376;6.126;2023-05-10T17:20:03;18.10;99.90
15625;DHT22;7912;51.376;6.126;2023-05-10T17:22:49;18.10;99.90
15625;DHT22;7912;51.376;6.126;2023-05-10T17:25:16;18.10;99.90
15625;DHT22;7912;51.376;6.126;2023-05-10T17:34:37;17.90;99.90
15625;DHT22;7912;51.376;6.126;2023-05-10T17:37:07;17.90;99.90
15625;DHT22;7912;51.376;6.126;2023-05-10T17:39:40;17.90;99.90
15625;DHT22;7912;51.376;6.126;2023-05-10T17:42:09;17.80;99.90
15625;DHT22;7912;51.376;6.126;2023-05-10T17:44:38;17.70;99.90
15625;DHT22;7912;51.376;6.126;2023-05-10T17:47:05;17.70;99.90
15625;DHT22;7912;51.376;6.126;2023-05-10T17:49:32;17.70;99.90
15625;DHT22;7912;51.376;6.126;2023-05-10T17:52:00;17.70;99.90
15625;DHT22;7912;51.376;6.126;2023-05-10T17:54:27;17.70;99.90
15625;DHT22;7912;51.376;6.126;2023-05-10T17:56:54;17.70;99.90
15625;DHT22;7912;51.376;6.126;2023-05-10T17:59:21;17.70;99.90
15625;DHT22;7912;51.376;6.126;2023-05-10T18:01:49;17.60;99.90
15625;DHT22;7912;51.376;6.126;2023-05-10T18:04:16;17.60;99.90
15625;DHT22;7912;51.376;6.126;2023-05-10T18:06:43;17.70;99.90
15625;DHT22;7912;51.376;6.126;2023-05-10T18:09:11;17.70;99.90
15625;DHT22;7912;51.376;6.126;2023-05-10T18:11:38;17.60;99.90
15625;DHT22;7912;51.376;6.126;2023-05-10T18:14:10;17.60;99.90
15625;DHT22;7912;51.376;6.126;2023-05-10T18:16:38;17.60;99.90
15625;DHT22;7912;51.376;6.126;2023-05-10T18:19:05;17.70;99.90
15625;DHT22;7912;51.376;6.126;2023-05-10T18:21:32;17.60;99.90